Terminal Aerodrome Forecast
Issued by NWS Sioux Falls, SD

Home | Current Version | Previous Version | Graphics & Text | Print | Product List | Glossary Off
Versions: 1 2 3 4 5 6 7 8 9 10 11 12 13 14 15 16 17 18 19 20 21 22 23 24 25 26 27 28

000
FTUS43 KFSD 201724
TAFSUX
TAF
KSUX 201724Z 2018/2118 32010KT P6SM FEW250
     FM202100 34009KT P6SM FEW200
     FM210600 09006KT P6SM SCT200
     FM210900 11007KT P6SM BKN150
     FM211700 14012KT P6SM BKN200=

USA.gov is the U.S. government's official web portal to all federal, state and local government web resources and services.